createdAt,value
2022-08-17T00:01:38.489Z,99.90
2022-08-17T00:04:19.031Z,99.90
2022-08-17T00:06:46.069Z,99.90
2022-08-17T00:09:18.495Z,99.90
2022-08-17T00:12:43.053Z,99.90
2022-08-17T00:14:36.467Z,99.90
2022-08-17T00:17:04.714Z,99.90
2022-08-17T00:19:32.809Z,99.90
2022-08-17T00:22:31.864Z,99.90
2022-08-17T00:24:49.707Z,99.90
2022-08-17T00:27:17.226Z,99.90
2022-08-17T00:29:45.712Z,99.90
2022-08-17T00:33:14.482Z,99.90
2022-08-17T00:35:00.185Z,99.90
2022-08-17T00:37:26.837Z,99.90
2022-08-17T00:39:53.546Z,99.90
2022-08-17T00:42:20.272Z,99.90
2022-08-17T00:44:47.138Z,99.90
2022-08-17T00:47:13.817Z,99.90
2022-08-17T00:49:40.487Z,99.90
2022-08-17T00:52:15.500Z,99.90
2022-08-17T00:54:46.347Z,99.90
2022-08-17T00:57:21.259Z,99.90
2022-08-17T01:00:01.976Z,99.90
2022-08-17T01:02:40.400Z,99.90
2022-08-17T01:05:23.468Z,99.90
2022-08-17T01:07:53.588Z,99.90
2022-08-17T01:10:57.350Z,99.90
2022-08-17T01:13:27.128Z,99.90
2022-08-17T01:16:07.572Z,99.90
2022-08-17T01:18:35.232Z,99.90
2022-08-17T01:21:14.079Z,99.90
2022-08-17T01:23:42.341Z,99.90
2022-08-17T01:26:09.270Z,99.90
2022-08-17T01:28:53.740Z,99.90
2022-08-17T01:31:24.356Z,99.90
2022-08-17T01:33:51.170Z,99.90
2022-08-17T01:36:18.035Z,99.90
2022-08-17T01:38:44.967Z,99.90
2022-08-17T01:41:14.921Z,99.90
2022-08-17T01:43:50.814Z,99.90
2022-08-17T01:46:23.377Z,99.90
2022-08-17T01:48:51.386Z,99.90
2022-08-17T01:51:19.782Z,99.90
2022-08-17T01:53:51.393Z,99.90
2022-08-17T01:56:23.059Z,99.90
2022-08-17T01:58:50.213Z,99.90
2022-08-17T02:01:22.796Z,99.90
2022-08-17T02:03:53.500Z,99.90
2022-08-17T02:06:29.869Z,99.90
2022-08-17T02:09:02.339Z,99.90
2022-08-17T02:11:33.191Z,99.90
2022-08-17T02:14:03.483Z,99.90
2022-08-17T02:16:36.620Z,99.90
2022-08-17T02:19:10.900Z,99.90
2022-08-17T02:21:38.783Z,99.90
2022-08-17T02:24:08.328Z,99.90
2022-08-17T02:26:35.106Z,99.90
2022-08-17T02:29:01.952Z,99.90
2022-08-17T02:31:29.411Z,99.90
2022-08-17T02:34:00.251Z,99.90
2022-08-17T02:36:31.247Z,99.90
2022-08-17T02:38:58.603Z,99.90
2022-08-17T02:41:25.479Z,99.90
2022-08-17T02:43:53.138Z,99.90
2022-08-17T02:46:19.885Z,99.90
2022-08-17T02:48:46.946Z,99.90
2022-08-17T02:51:13.796Z,99.90
2022-08-17T02:53:40.698Z,99.90
2022-08-17T02:56:07.334Z,99.90
2022-08-17T02:58:35.011Z,99.90
2022-08-17T03:01:06.983Z,99.90
2022-08-17T03:03:35.016Z,99.90
2022-08-17T03:06:01.793Z,99.90
2022-08-17T03:08:29.116Z,99.90
2022-08-17T03:10:56.099Z,99.90
2022-08-17T03:13:23.241Z,99.90
2022-08-17T03:15:50.538Z,99.90
2022-08-17T03:18:24.523Z,99.90
2022-08-17T03:20:55.790Z,99.90
2022-08-17T03:23:24.485Z,99.90
2022-08-17T03:25:54.126Z,99.90
2022-08-17T03:28:21.978Z,99.90
2022-08-17T03:30:50.968Z,99.90
2022-08-17T03:33:18.399Z,99.90
2022-08-17T03:35:45.313Z,99.90
2022-08-17T03:38:15.347Z,99.90
2022-08-17T03:40:56.997Z,99.90
2022-08-17T03:43:31.870Z,99.90
2022-08-17T03:46:28.041Z,99.90
2022-08-17T03:49:19.392Z,99.90
2022-08-17T03:52:04.863Z,99.90
2022-08-17T03:54:50.238Z,99.90
2022-08-17T03:57:17.082Z,99.90
2022-08-17T03:59:45.117Z,99.90
2022-08-17T04:02:19.894Z,99.90
2022-08-17T04:04:46.976Z,99.90
2022-08-17T04:07:13.746Z,99.90
2022-08-17T04:09:40.513Z,99.90
2022-08-17T04:12:07.342Z,99.90
2022-08-17T04:14:51.507Z,99.90
2022-08-17T04:17:24.898Z,99.90
2022-08-17T04:19:51.731Z,99.90
2022-08-17T04:22:32.844Z,99.90
2022-08-17T04:25:04.199Z,99.90
2022-08-17T04:27:30.932Z,99.90
2022-08-17T04:29:58.441Z,99.90
2022-08-17T04:32:25.214Z,99.90
2022-08-17T04:35:11.822Z,99.90
2022-08-17T04:37:38.497Z,99.90
2022-08-17T04:40:27.339Z,99.90
2022-08-17T04:43:02.765Z,99.90
2022-08-17T04:45:32.021Z,99.90
2022-08-17T04:47:59.854Z,99.90
2022-08-17T04:50:27.064Z,99.90
2022-08-17T04:52:53.898Z,99.90
2022-08-17T04:55:20.674Z,99.90
2022-08-17T04:57:47.423Z,99.90
2022-08-17T05:00:14.406Z,99.90
2022-08-17T05:02:51.006Z,99.90
2022-08-17T05:05:20.813Z,99.90
2022-08-17T05:07:47.939Z,99.90
2022-08-17T05:10:14.613Z,99.90
2022-08-17T05:12:41.303Z,99.90
2022-08-17T05:15:14.234Z,99.90
2022-08-17T05:17:40.908Z,99.90
2022-08-17T05:20:08.131Z,99.90
2022-08-17T05:22:34.860Z,99.90
2022-08-17T05:25:01.937Z,99.90
2022-08-17T05:27:32.242Z,99.90
2022-08-17T05:30:02.797Z,99.90
2022-08-17T05:32:39.285Z,99.90
2022-08-17T05:35:07.378Z,99.90
2022-08-17T05:37:34.027Z,99.90
2022-08-17T05:40:00.754Z,99.90
2022-08-17T05:42:27.485Z,99.90
2022-08-17T05:44:57.811Z,99.90
2022-08-17T05:47:26.122Z,99.90
2022-08-17T05:49:53.743Z,99.90
2022-08-17T05:52:47.563Z,99.90
2022-08-17T05:55:28.622Z,99.90
2022-08-17T05:58:23.334Z,99.90
2022-08-17T06:01:28.506Z,99.90
2022-08-17T06:04:12.233Z,99.90
2022-08-17T06:07:03.075Z,99.90
2022-08-17T06:09:36.146Z,99.90
2022-08-17T06:12:40.674Z,99.90
2022-08-17T06:15:31.738Z,99.90
2022-08-17T06:18:05.166Z,99.90
2022-08-17T06:20:57.409Z,99.90
2022-08-17T06:23:35.975Z,99.90
2022-08-17T06:26:11.238Z,99.90
2022-08-17T06:28:43.567Z,99.90
2022-08-17T06:31:22.521Z,99.90
2022-08-17T06:33:50.164Z,99.90
2022-08-17T06:36:42.670Z,99.90
2022-08-17T06:39:37.413Z,99.90
2022-08-17T06:43:02.136Z,99.90
2022-08-17T06:45:34.224Z,99.90
2022-08-17T06:48:10.183Z,99.90
2022-08-17T06:50:42.413Z,99.90
2022-08-17T06:53:29.571Z,99.90
2022-08-17T06:56:08.824Z,99.90
2022-08-17T06:58:37.282Z,99.90
2022-08-17T07:01:24.205Z,99.90
2022-08-17T07:04:11.916Z,99.90
2022-08-17T07:07:24.650Z,99.90
2022-08-17T07:09:54.347Z,99.90
2022-08-17T07:12:29.566Z,99.90
2022-08-17T07:15:04.422Z,99.90
2022-08-17T07:17:46.731Z,99.90
2022-08-17T07:20:20.497Z,99.90
2022-08-17T07:23:04.558Z,99.90
2022-08-17T07:25:31.316Z,99.90
2022-08-17T07:28:00.900Z,99.90
2022-08-17T07:30:31.855Z,99.90
2022-08-17T07:33:14.746Z,99.90
2022-08-17T07:35:44.115Z,99.90
2022-08-17T07:38:24.278Z,99.90
2022-08-17T07:41:02.089Z,99.90
2022-08-17T07:43:46.389Z,99.90
2022-08-17T07:46:42.927Z,99.90
2022-08-17T07:49:09.546Z,99.90
2022-08-17T07:51:44.177Z,99.90
2022-08-17T07:54:22.251Z,99.90
2022-08-17T07:56:53.587Z,99.90
2022-08-17T07:59:34.921Z,99.90
2022-08-17T08:02:15.629Z,99.90
2022-08-17T08:05:00.464Z,99.90
2022-08-17T08:07:38.091Z,99.90
2022-08-17T08:10:15.182Z,99.90
2022-08-17T08:12:46.043Z,99.90
2022-08-17T08:15:18.870Z,99.90
2022-08-17T08:18:03.779Z,99.90
2022-08-17T08:21:02.106Z,99.90
2022-08-17T08:23:52.646Z,99.90
2022-08-17T08:26:44.402Z,99.90
2022-08-17T08:29:20.377Z,99.90
2022-08-17T08:32:16.349Z,99.90
2022-08-17T08:35:02.074Z,99.90
2022-08-17T08:37:44.789Z,99.90
2022-08-17T08:40:33.072Z,99.90
2022-08-17T08:43:36.296Z,99.90
2022-08-17T08:46:18.449Z,99.90
2022-08-17T08:49:12.205Z,99.90
2022-08-17T08:51:48.598Z,99.90
2022-08-17T08:54:34.948Z,99.90
2022-08-17T08:57:24.418Z,99.90
2022-08-17T08:59:58.182Z,99.90
2022-08-17T09:02:41.665Z,99.90
2022-08-17T09:05:44.498Z,99.90
2022-08-17T09:08:17.863Z,99.90
2022-08-17T09:10:50.473Z,99.90
2022-08-17T09:13:34.146Z,99.90
2022-08-17T09:16:15.241Z,99.90
2022-08-17T09:19:01.563Z,99.90
2022-08-17T09:21:45.774Z,99.90
2022-08-17T09:24:46.449Z,99.90
2022-08-17T09:27:23.451Z,99.90
2022-08-17T09:29:57.717Z,99.90
2022-08-17T09:32:49.967Z,99.90
2022-08-17T09:35:37.372Z,99.90
2022-08-17T09:38:32.178Z,99.90
2022-08-17T09:41:11.242Z,99.90
2022-08-17T09:44:23.210Z,99.90
2022-08-17T09:47:22.819Z,99.90
2022-08-17T09:50:03.423Z,99.90
2022-08-17T09:52:31.559Z,99.90
2022-08-17T09:55:00.254Z,99.90
2022-08-17T09:57:45.503Z,99.90
2022-08-17T10:00:18.936Z,99.90
2022-08-17T10:02:55.263Z,99.90
2022-08-17T10:05:46.416Z,99.90
2022-08-17T10:08:32.079Z,99.90
2022-08-17T10:11:53.955Z,99.90
2022-08-17T10:14:44.685Z,99.90
2022-08-17T10:17:27.471Z,99.90
2022-08-17T10:20:11.800Z,99.90
2022-08-17T10:23:08.770Z,99.90
2022-08-17T10:26:00.756Z,99.90
2022-08-17T10:28:36.392Z,99.90
2022-08-17T10:31:33.305Z,99.90
2022-08-17T10:34:20.625Z,99.90
2022-08-17T10:37:06.551Z,99.90
2022-08-17T10:39:57.299Z,99.90
2022-08-17T10:42:37.307Z,99.90
2022-08-17T10:45:16.862Z,99.90
2022-08-17T10:48:07.377Z,99.90
2022-08-17T10:51:01.342Z,99.90
2022-08-17T10:53:38.750Z,99.90
2022-08-17T10:56:22.290Z,99.90
2022-08-17T10:58:51.186Z,99.90
2022-08-17T11:01:18.226Z,99.90
2022-08-17T11:03:55.025Z,99.90
2022-08-17T11:06:43.582Z,99.90
2022-08-17T11:09:48.356Z,99.90
2022-08-17T11:12:37.962Z,99.90
2022-08-17T11:15:42.156Z,99.90
2022-08-17T11:18:27.926Z,99.90
2022-08-17T11:21:07.787Z,99.90
2022-08-17T11:23:43.350Z,99.90
2022-08-17T11:26:48.985Z,99.90
2022-08-17T11:29:30.010Z,99.90
2022-08-17T11:32:06.460Z,99.90
2022-08-17T11:34:39.795Z,99.90
2022-08-17T11:37:28.496Z,99.90
2022-08-17T11:40:13.602Z,99.90
2022-08-17T11:43:03.354Z,99.90
2022-08-17T11:45:41.964Z,99.90
2022-08-17T11:48:46.126Z,99.90
2022-08-17T11:51:34.577Z,99.90
2022-08-17T11:57:02.192Z,99.90
2022-08-17T11:59:32.672Z,99.90
2022-08-17T12:02:01.679Z,99.90
2022-08-17T12:04:33.607Z,99.90
2022-08-17T12:07:20.449Z,99.90
2022-08-17T12:09:50.853Z,99.60
2022-08-17T12:12:22.761Z,98.60
2022-08-17T12:15:11.104Z,98.30
2022-08-17T12:17:40.118Z,98.60
2022-08-17T12:20:34.051Z,98.40
2022-08-17T12:23:21.847Z,98.30
2022-08-17T12:26:11.875Z,99.20
2022-08-17T12:28:45.610Z,98.70
2022-08-17T12:31:22.970Z,99.10
2022-08-17T12:33:51.800Z,99.60
2022-08-17T12:36:28.345Z,99.60
2022-08-17T12:39:13.736Z,99.90
2022-08-17T12:41:46.885Z,99.90
2022-08-17T12:44:21.882Z,99.90
2022-08-17T12:47:19.418Z,99.90
2022-08-17T12:49:51.639Z,99.90
2022-08-17T12:52:29.008Z,99.90
2022-08-17T12:55:21.095Z,99.90
2022-08-17T12:57:51.263Z,99.90
2022-08-17T13:00:30.147Z,98.50
2022-08-17T13:03:14.227Z,98.20
2022-08-17T13:05:53.587Z,97.80
2022-08-17T13:08:26.935Z,98.20
2022-08-17T13:10:55.605Z,98.40
2022-08-17T13:13:34.885Z,98.50
2022-08-17T13:16:05.597Z,98.40
2022-08-17T13:18:35.359Z,99.00
2022-08-17T13:21:02.513Z,98.40
2022-08-17T13:23:32.429Z,98.30
2022-08-17T13:26:08.829Z,98.10
2022-08-17T13:28:37.496Z,98.30
2022-08-17T13:31:40.247Z,99.10
2022-08-17T13:34:33.462Z,98.20
2022-08-17T13:37:32.558Z,98.60
2022-08-17T13:40:26.680Z,98.00
2022-08-17T13:42:55.505Z,97.60
2022-08-17T13:45:35.601Z,97.50
2022-08-17T13:48:13.493Z,96.70
2022-08-17T13:51:02.578Z,97.90
2022-08-17T13:53:40.383Z,97.40
2022-08-17T13:56:34.947Z,94.90
2022-08-17T13:59:52.558Z,96.10
2022-08-17T14:02:16.268Z,95.80
2022-08-17T14:04:44.339Z,94.60
2022-08-17T14:07:15.342Z,94.20
2022-08-17T14:09:46.732Z,93.80
2022-08-17T14:12:16.435Z,94.30
2022-08-17T14:14:44.694Z,94.60
2022-08-17T14:17:12.537Z,93.20
2022-08-17T14:19:39.562Z,93.60
2022-08-17T14:22:11.571Z,93.80
2022-08-17T14:24:44.984Z,93.10
2022-08-17T14:27:12.040Z,92.10
2022-08-17T14:29:41.028Z,93.60
2022-08-17T14:32:20.320Z,93.60
2022-08-17T14:34:49.452Z,92.80
2022-08-17T14:37:17.979Z,93.40
2022-08-17T14:39:44.859Z,92.50
2022-08-17T14:42:11.882Z,92.20
2022-08-17T14:44:39.437Z,92.50
2022-08-17T14:47:07.778Z,92.30
2022-08-17T14:49:34.450Z,92.80
2022-08-17T14:52:01.440Z,93.10
2022-08-17T14:54:33.273Z,92.40
2022-08-17T14:57:33.742Z,92.10
2022-08-17T14:59:54.242Z,92.50
2022-08-17T15:02:29.833Z,94.00
2022-08-17T15:05:02.057Z,93.70
2022-08-17T15:07:30.409Z,93.30
2022-08-17T15:09:58.830Z,94.70
2022-08-17T15:12:32.352Z,93.20
2022-08-17T15:15:01.021Z,93.70
2022-08-17T15:17:45.168Z,93.90
2022-08-17T15:20:16.355Z,93.50
2022-08-17T15:22:45.179Z,93.30
2022-08-17T15:25:13.772Z,94.30
2022-08-17T15:27:40.803Z,94.80
2022-08-17T15:30:09.390Z,95.40
2022-08-17T15:32:39.207Z,94.30
2022-08-17T15:35:07.413Z,94.00
2022-08-17T15:37:34.309Z,93.00
2022-08-17T15:40:01.178Z,93.10
2022-08-17T15:42:29.160Z,92.50
2022-08-17T15:44:55.885Z,91.60
2022-08-17T15:47:23.219Z,91.80
2022-08-17T15:49:50.803Z,91.10
2022-08-17T15:52:21.938Z,90.30
2022-08-17T15:54:58.093Z,91.10
2022-08-17T15:57:25.766Z,90.50
2022-08-17T15:59:55.874Z,91.70
2022-08-17T16:03:13.703Z,90.60
2022-08-17T16:05:19.829Z,91.10
2022-08-17T16:10:35.717Z,91.10
2022-08-17T16:13:04.025Z,91.80
2022-08-17T16:15:31.584Z,88.70
2022-08-17T16:17:58.368Z,90.20
2022-08-17T16:20:25.065Z,90.30
2022-08-17T16:22:52.026Z,91.50
2022-08-17T16:25:49.694Z,90.40
2022-08-17T16:28:13.794Z,90.50
2022-08-17T16:30:41.184Z,91.50
2022-08-17T16:33:11.260Z,90.90
2022-08-17T16:35:38.214Z,90.80
2022-08-17T16:38:04.989Z,91.30
2022-08-17T16:40:36.073Z,91.40
2022-08-17T16:43:04.188Z,91.40
2022-08-17T16:45:36.716Z,91.40
2022-08-17T16:48:04.367Z,91.70
2022-08-17T16:50:32.061Z,92.30
2022-08-17T16:53:16.147Z,92.40
2022-08-17T16:55:47.304Z,92.40
2022-08-17T16:58:15.228Z,93.00
2022-08-17T17:00:44.082Z,92.50
2022-08-17T17:03:20.799Z,92.50
2022-08-17T17:06:06.876Z,92.50
2022-08-17T17:08:46.590Z,92.50
2022-08-17T17:11:35.070Z,94.10
2022-08-17T17:14:06.059Z,93.90
2022-08-17T17:16:46.784Z,93.00
2022-08-17T17:19:34.912Z,92.50
2022-08-17T17:22:47.879Z,92.30
2022-08-17T17:25:26.242Z,92.30
2022-08-17T17:28:01.468Z,92.00
2022-08-17T17:30:28.128Z,92.90
2022-08-17T17:32:56.066Z,93.20
2022-08-17T17:35:40.304Z,92.10
2022-08-17T17:38:16.881Z,92.10
2022-08-17T17:40:47.614Z,92.40
2022-08-17T17:43:38.475Z,91.60
2022-08-17T17:46:27.140Z,91.80
2022-08-17T17:48:56.715Z,91.60
2022-08-17T17:52:10.918Z,91.80
2022-08-17T17:55:00.714Z,92.30
2022-08-17T17:57:55.774Z,92.10
2022-08-17T18:00:25.745Z,92.30
2022-08-17T18:03:06.854Z,93.40
2022-08-17T18:05:47.396Z,92.30
2022-08-17T18:08:36.076Z,91.80
2022-08-17T18:11:06.429Z,91.90
2022-08-17T18:14:14.688Z,91.40
2022-08-17T18:16:46.347Z,91.70
2022-08-17T18:19:16.168Z,91.90
2022-08-17T18:21:48.342Z,92.00
2022-08-17T18:24:15.011Z,92.00
2022-08-17T18:26:56.710Z,91.80
2022-08-17T18:29:34.250Z,92.70
2022-08-17T18:32:15.490Z,93.40
2022-08-17T18:34:47.608Z,93.80
2022-08-17T18:37:34.548Z,94.00
2022-08-17T18:40:16.330Z,94.20
2022-08-17T18:43:11.984Z,94.70
2022-08-17T18:45:49.246Z,95.20
2022-08-17T18:48:22.178Z,95.70
2022-08-17T18:50:51.379Z,96.00
2022-08-17T18:53:39.037Z,96.10
2022-08-17T18:56:21.130Z,95.80
2022-08-17T18:59:12.005Z,96.10
2022-08-17T19:01:53.307Z,96.70
2022-08-17T19:05:07.763Z,97.00
2022-08-17T19:07:46.302Z,98.20
2022-08-17T19:10:46.560Z,99.20
2022-08-17T19:13:24.480Z,99.90
2022-08-17T19:16:12.259Z,99.90
2022-08-17T19:19:07.750Z,99.90
2022-08-17T19:21:40.268Z,99.90
2022-08-17T19:24:19.470Z,99.90
2022-08-17T19:26:56.730Z,99.90
2022-08-17T19:29:42.778Z,99.90
2022-08-17T19:32:11.399Z,99.90
2022-08-17T19:34:39.565Z,99.90
2022-08-17T19:37:20.692Z,99.90
2022-08-17T19:40:24.505Z,99.90
2022-08-17T19:43:05.928Z,99.90
2022-08-17T19:45:32.691Z,99.90
2022-08-17T19:48:20.629Z,99.90
2022-08-17T19:51:00.820Z,99.90
2022-08-17T19:54:07.372Z,99.90
2022-08-17T19:56:58.557Z,99.90
2022-08-17T19:59:28.499Z,99.90
2022-08-17T20:02:27.071Z,99.90
2022-08-17T20:04:59.092Z,99.90
2022-08-17T20:07:52.767Z,99.90
2022-08-17T20:11:18.088Z,99.90
2022-08-17T20:14:09.545Z,99.90
2022-08-17T20:16:36.302Z,99.90
2022-08-17T20:19:16.334Z,99.90
2022-08-17T20:21:55.740Z,99.90
2022-08-17T20:24:35.211Z,99.90
2022-08-17T20:27:31.561Z,99.90
2022-08-17T20:30:11.913Z,99.90
2022-08-17T20:32:48.558Z,99.90
2022-08-17T20:35:16.737Z,99.90
2022-08-17T20:38:11.129Z,99.90
2022-08-17T20:41:00.626Z,99.90
2022-08-17T20:43:32.857Z,99.90
2022-08-17T20:46:21.455Z,99.90
2022-08-17T20:48:56.836Z,99.90
2022-08-17T20:52:00.870Z,99.90
2022-08-17T20:54:40.785Z,99.90
2022-08-17T20:57:14.167Z,99.90
2022-08-17T20:59:44.004Z,99.90
2022-08-17T21:02:21.200Z,99.90
2022-08-17T21:04:50.911Z,99.90
2022-08-17T21:07:43.236Z,99.90
2022-08-17T21:10:18.386Z,99.90
2022-08-17T21:12:52.452Z,99.90
2022-08-17T21:15:51.704Z,99.90
2022-08-17T21:18:30.895Z,99.90
2022-08-17T21:21:17.323Z,99.90
2022-08-17T21:24:10.308Z,99.90
2022-08-17T21:26:56.641Z,99.90
2022-08-17T21:29:31.806Z,99.90
2022-08-17T21:31:59.340Z,99.90
2022-08-17T21:34:34.214Z,99.90
2022-08-17T21:37:22.300Z,99.90
2022-08-17T21:39:57.907Z,99.90
2022-08-17T21:42:35.134Z,99.90
2022-08-17T21:45:28.613Z,99.90
2022-08-17T21:48:20.631Z,99.90
2022-08-17T21:51:10.330Z,99.90
2022-08-17T21:53:42.727Z,99.90
2022-08-17T21:56:12.158Z,99.90
2022-08-17T21:58:47.860Z,99.90
2022-08-17T22:01:37.085Z,99.90
2022-08-17T22:04:24.082Z,99.90
2022-08-17T22:06:57.170Z,99.90
2022-08-17T22:09:33.774Z,99.90
2022-08-17T22:12:05.758Z,99.90
2022-08-17T22:14:52.466Z,99.90
2022-08-17T22:17:35.290Z,99.90
2022-08-17T22:20:15.328Z,99.90
2022-08-17T22:23:09.441Z,99.90
2022-08-17T22:25:39.750Z,99.90
2022-08-17T22:28:08.756Z,99.90
2022-08-17T22:30:39.210Z,99.90
2022-08-17T22:33:36.811Z,99.90
2022-08-17T22:36:33.016Z,99.90
2022-08-17T22:39:20.635Z,99.90
2022-08-17T22:41:48.063Z,99.90
2022-08-17T22:44:37.642Z,99.90
2022-08-17T22:47:29.314Z,99.90
2022-08-17T22:50:00.145Z,99.90
2022-08-17T22:52:58.488Z,99.90
2022-08-17T22:55:45.966Z,99.90
2022-08-17T22:58:36.069Z,99.90
2022-08-17T23:01:30.132Z,99.90
2022-08-17T23:04:10.436Z,99.90
2022-08-17T23:06:39.317Z,99.90
2022-08-17T23:09:07.036Z,99.90
2022-08-17T23:11:48.754Z,99.90
2022-08-17T23:14:19.047Z,99.90
2022-08-17T23:16:47.133Z,99.90
2022-08-17T23:19:17.087Z,99.90
2022-08-17T23:21:47.006Z,99.90
2022-08-17T23:24:23.027Z,99.90
2022-08-17T23:26:49.957Z,99.90
2022-08-17T23:29:16.730Z,99.90
2022-08-17T23:31:43.475Z,99.90
2022-08-17T23:34:12.939Z,99.90
2022-08-17T23:36:39.742Z,99.90
2022-08-17T23:39:07.080Z,99.90
2022-08-17T23:41:38.542Z,99.90
2022-08-17T23:44:06.528Z,99.90
2022-08-17T23:46:34.457Z,99.90
2022-08-17T23:49:01.210Z,99.90
2022-08-17T23:51:33.414Z,99.90
2022-08-17T23:54:08.367Z,99.90
2022-08-17T23:56:40.583Z,99.90
2022-08-17T23:59:07.268Z,99.90
